createdAt,value
2018-07-22T00:02:09.403Z,100724.55
2018-07-22T00:04:36.548Z,100724.34
2018-07-22T00:07:03.720Z,100719.30
2018-07-22T00:09:30.880Z,100724.00
2018-07-22T00:11:58.027Z,100727.73
2018-07-22T00:14:25.154Z,100730.58
2018-07-22T00:16:52.331Z,100729.23
2018-07-22T00:19:19.468Z,100736.07
2018-07-22T00:21:46.621Z,100732.61
2018-07-22T00:24:13.811Z,100730.23
2018-07-22T00:26:40.948Z,100733.55
2018-07-22T00:29:08.129Z,100732.19
2018-07-22T00:31:35.455Z,100731.49
2018-07-22T00:34:02.583Z,100729.39
2018-07-22T00:36:29.693Z,100735.97
2018-07-22T00:38:56.848Z,100736.33
2018-07-22T00:41:23.960Z,100736.50
2018-07-22T00:43:51.070Z,100732.00
2018-07-22T00:46:18.989Z,100730.64
2018-07-22T00:48:46.138Z,100728.22
2018-07-22T00:51:13.284Z,100728.11
2018-07-22T00:53:40.455Z,100732.58
2018-07-22T00:56:07.587Z,100730.08
2018-07-22T00:58:34.755Z,100732.74
2018-07-22T01:01:02.056Z,100721.89
2018-07-22T01:03:29.176Z,100724.30
2018-07-22T01:05:56.308Z,100728.37
2018-07-22T01:08:23.474Z,100722.69
2018-07-22T01:10:50.600Z,100727.70
2018-07-22T01:13:17.757Z,100729.59
2018-07-22T01:15:44.953Z,100723.09
2018-07-22T01:18:12.097Z,100726.89
2018-07-22T01:20:39.270Z,100723.36
2018-07-22T01:23:06.617Z,100730.73
2018-07-22T01:25:33.749Z,100734.92
2018-07-22T01:28:00.896Z,100732.80
2018-07-22T01:30:28.052Z,100733.03
2018-07-22T01:32:55.223Z,100737.03
2018-07-22T01:35:22.309Z,100726.92
2018-07-22T01:37:49.556Z,100733.82
2018-07-22T01:40:16.700Z,100727.75
2018-07-22T01:42:43.964Z,100730.44
2018-07-22T01:45:11.145Z,100735.77
2018-07-22T01:47:38.240Z,100740.25
2018-07-22T01:50:05.463Z,100739.34
2018-07-22T01:52:32.637Z,100738.89
2018-07-22T01:54:59.748Z,100739.77
2018-07-22T01:57:26.920Z,100743.31
2018-07-22T01:59:54.085Z,100738.59
2018-07-22T02:02:21.205Z,100743.62
2018-07-22T02:04:48.340Z,100740.17
2018-07-22T02:07:15.608Z,100746.83
2018-07-22T02:09:42.710Z,100744.45
2018-07-22T02:12:09.847Z,100744.55
2018-07-22T02:14:37.004Z,100741.09
2018-07-22T02:17:04.146Z,100743.97
2018-07-22T02:19:31.271Z,100742.09
2018-07-22T02:21:58.417Z,100738.82
2018-07-22T02:24:25.546Z,100743.09
2018-07-22T02:26:52.678Z,100744.52
2018-07-22T02:29:19.928Z,100743.63
2018-07-22T02:31:47.057Z,100746.10
2018-07-22T02:34:14.220Z,100741.42
2018-07-22T02:36:41.364Z,100755.23
2018-07-22T02:39:10.407Z,100757.30
2018-07-22T02:41:37.565Z,100754.64
2018-07-22T02:44:04.808Z,100755.70
2018-07-22T02:46:32.125Z,100752.19
2018-07-22T02:48:59.280Z,100751.27
2018-07-22T02:51:26.505Z,100754.91
2018-07-22T02:53:53.639Z,100758.36
2018-07-22T02:56:20.740Z,100755.31
2018-07-22T02:58:47.916Z,100761.95
2018-07-22T03:01:15.159Z,100758.77
2018-07-22T03:03:42.279Z,100756.23
2018-07-22T03:06:09.411Z,100762.65
2018-07-22T03:08:36.532Z,100757.20
2018-07-22T03:11:03.713Z,100758.63
2018-07-22T03:13:31.035Z,100755.37
2018-07-22T03:15:58.191Z,100754.61
2018-07-22T03:18:25.344Z,100762.81
2018-07-22T03:20:52.504Z,100753.22
2018-07-22T03:23:19.664Z,100758.86
2018-07-22T03:25:46.808Z,100759.89
2018-07-22T03:28:14.001Z,100761.85
2018-07-22T03:30:41.121Z,100762.52
2018-07-22T03:33:08.233Z,100758.06
2018-07-22T03:35:36.347Z,100751.89
2018-07-22T03:38:03.446Z,100755.51
2018-07-22T03:40:30.555Z,100756.97
2018-07-22T03:42:57.705Z,100756.58
2018-07-22T03:45:24.825Z,100759.69
2018-07-22T03:47:51.934Z,100758.93
2018-07-22T03:50:19.156Z,100771.28
2018-07-22T03:52:46.288Z,100769.69
2018-07-22T03:55:13.431Z,100764.47
2018-07-22T03:57:40.600Z,100767.76
2018-07-22T04:00:07.760Z,100765.80
2018-07-22T04:02:34.902Z,100764.23
2018-07-22T04:05:02.067Z,100766.84
2018-07-22T04:07:29.229Z,100772.91
2018-07-22T04:09:56.369Z,100763.03
2018-07-22T04:12:23.554Z,100765.48
2018-07-22T04:14:50.675Z,100764.16
2018-07-22T04:17:17.815Z,100770.03
2018-07-22T04:19:45.080Z,100765.91
2018-07-22T04:22:12.216Z,100768.25
2018-07-22T04:24:39.324Z,100771.30
2018-07-22T04:27:06.520Z,100770.11
2018-07-22T04:29:33.640Z,100773.34
2018-07-22T04:32:00.752Z,100765.97
2018-07-22T04:34:28.021Z,100765.71
2018-07-22T04:36:55.201Z,100765.99
2018-07-22T04:39:22.315Z,100763.23
2018-07-22T04:41:49.495Z,100763.14
2018-07-22T04:44:16.608Z,100765.23
2018-07-22T04:46:43.738Z,100762.48
2018-07-22T04:49:10.907Z,100766.64
2018-07-22T04:51:38.016Z,100763.70
2018-07-22T04:54:05.145Z,100769.08
2018-07-22T04:56:32.317Z,100763.30
2018-07-22T04:58:59.449Z,100764.27
2018-07-22T05:01:26.560Z,100766.91
2018-07-22T05:03:53.903Z,100772.77
2018-07-22T05:06:21.033Z,100774.04
2018-07-22T05:08:48.143Z,100773.72
2018-07-22T05:11:15.353Z,100779.56
2018-07-22T05:13:42.471Z,100779.92
2018-07-22T05:16:09.630Z,100776.52
2018-07-22T05:18:36.788Z,100774.81
2018-07-22T05:21:03.932Z,100773.77
2018-07-22T05:23:31.038Z,100773.20
2018-07-22T05:25:58.195Z,100774.95
2018-07-22T05:28:25.336Z,100775.50
2018-07-22T05:30:52.472Z,100774.30
2018-07-22T05:33:19.645Z,100770.09
2018-07-22T05:35:46.865Z,100772.17
2018-07-22T05:38:14.070Z,100773.30
2018-07-22T05:40:41.367Z,100773.60
2018-07-22T05:43:08.535Z,100779.60
2018-07-22T05:45:36.484Z,100780.94
2018-07-22T05:48:03.688Z,100787.31
2018-07-22T05:50:30.821Z,100780.96
2018-07-22T05:52:57.996Z,100788.98
2018-07-22T05:55:25.168Z,100787.33
2018-07-22T05:57:52.309Z,100791.69
2018-07-22T06:00:19.440Z,100795.67
2018-07-22T06:02:46.713Z,100799.70
2018-07-22T06:05:13.848Z,100805.58
2018-07-22T06:07:41.001Z,100807.16
2018-07-22T06:10:08.214Z,100804.58
2018-07-22T06:12:35.348Z,100802.52
2018-07-22T06:15:02.517Z,100805.52
2018-07-22T06:17:29.781Z,100806.50
2018-07-22T06:19:56.903Z,100808.42
2018-07-22T06:22:24.037Z,100809.35
2018-07-22T06:24:51.207Z,100809.33
2018-07-22T06:27:18.352Z,100809.84
2018-07-22T06:29:45.483Z,100813.72
2018-07-22T06:32:12.753Z,100804.90
2018-07-22T06:34:39.890Z,100821.05
2018-07-22T06:37:07.169Z,100816.69
2018-07-22T06:39:34.506Z,100814.66
2018-07-22T06:42:01.669Z,100812.16
2018-07-22T06:44:28.812Z,100822.98
2018-07-22T06:46:55.985Z,100817.72
2018-07-22T06:49:23.108Z,100820.20
2018-07-22T06:51:50.268Z,100814.49
2018-07-22T06:54:17.542Z,100820.50
2018-07-22T06:56:44.669Z,100822.00
2018-07-22T06:59:11.863Z,100822.74
2018-07-22T07:01:39.059Z,100820.45
2018-07-22T07:04:06.212Z,100815.27
2018-07-22T07:06:33.347Z,100820.70
2018-07-22T07:09:00.533Z,100823.80
2018-07-22T07:11:27.705Z,100831.41
2018-07-22T07:13:54.860Z,100827.42
2018-07-22T07:16:22.059Z,100828.14
2018-07-22T07:18:49.195Z,100825.75
2018-07-22T07:21:16.340Z,100827.55
2018-07-22T07:23:43.528Z,100827.43
2018-07-22T07:26:10.645Z,100822.77
2018-07-22T07:28:37.771Z,100821.83
2018-07-22T07:31:04.941Z,100818.27
2018-07-22T07:33:32.125Z,100823.16
2018-07-22T07:35:59.255Z,100825.89
2018-07-22T07:38:26.522Z,100827.00
2018-07-22T07:40:53.708Z,100827.14
2018-07-22T07:43:20.832Z,100828.94
2018-07-22T07:45:48.047Z,100824.66
2018-07-22T07:48:15.201Z,100819.42
2018-07-22T07:50:42.327Z,100824.89
2018-07-22T07:53:09.463Z,100826.87
2018-07-22T07:55:36.588Z,100829.16
2018-07-22T07:58:03.736Z,100818.66
2018-07-22T08:00:30.903Z,100821.47
2018-07-22T08:02:58.100Z,100821.95
2018-07-22T08:05:25.339Z,100821.62
2018-07-22T08:07:52.495Z,100828.20
2018-07-22T08:10:19.635Z,100828.30
2018-07-22T08:12:46.760Z,100831.93
2018-07-22T08:15:13.965Z,100832.13
2018-07-22T08:17:41.081Z,100829.80
2018-07-22T08:20:08.261Z,100831.32
2018-07-22T08:22:35.453Z,100829.11
2018-07-22T08:25:02.684Z,100834.52
2018-07-22T08:27:29.856Z,100835.73
2018-07-22T08:29:57.125Z,100842.09
2018-07-22T08:32:24.299Z,100840.28
2018-07-22T08:34:51.444Z,100834.66
2018-07-22T08:37:18.587Z,100841.97
2018-07-22T08:39:45.716Z,100839.73
2018-07-22T08:42:12.907Z,100841.47
2018-07-22T08:44:40.060Z,100831.47
2018-07-22T08:47:07.167Z,100828.66
2018-07-22T08:49:34.288Z,100828.53
2018-07-22T08:52:01.476Z,100825.34
2018-07-22T08:54:28.633Z,100825.05
2018-07-22T08:56:55.800Z,100828.34
2018-07-22T08:59:23.087Z,100830.48
2018-07-22T09:01:50.245Z,100831.44
2018-07-22T09:04:17.403Z,100824.18
2018-07-22T09:06:44.591Z,100825.61
2018-07-22T09:09:12.184Z,100828.34
2018-07-22T09:11:39.381Z,100821.27
2018-07-22T09:14:07.248Z,100829.38
2018-07-22T09:16:34.396Z,100827.07
2018-07-22T09:19:01.532Z,100824.89
2018-07-22T09:21:28.692Z,100824.09
2018-07-22T09:23:55.844Z,100831.34
2018-07-22T09:26:22.960Z,100824.75
2018-07-22T09:28:50.141Z,100830.75
2018-07-22T09:31:17.299Z,100830.09
2018-07-22T09:33:44.416Z,100814.78
2018-07-22T09:36:11.687Z,100835.30
2018-07-22T09:38:38.792Z,100826.48
2018-07-22T09:41:06.003Z,100831.31
2018-07-22T09:43:33.260Z,100823.82
2018-07-22T09:46:00.404Z,100822.06
2018-07-22T09:48:27.637Z,100829.55
2018-07-22T09:50:54.825Z,100833.14
2018-07-22T09:53:21.944Z,100840.66
2018-07-22T09:55:49.798Z,100837.63
2018-07-22T09:58:17.075Z,100832.88
2018-07-22T10:00:49.865Z,100838.55
2018-07-22T10:03:17.194Z,100836.94
2018-07-22T10:05:44.348Z,100838.59
2018-07-22T10:08:11.469Z,100835.99
2018-07-22T10:10:38.611Z,100835.73
2018-07-22T10:13:06.288Z,100837.59
2018-07-22T10:15:33.458Z,100833.48
2018-07-22T10:18:00.697Z,100834.20
2018-07-22T10:20:27.862Z,100833.91
2018-07-22T10:22:54.976Z,100833.91
2018-07-22T10:25:22.233Z,100830.48
2018-07-22T10:27:49.358Z,100836.89
2018-07-22T10:30:16.532Z,100835.77
2018-07-22T10:32:43.679Z,100823.22
2018-07-22T10:35:10.805Z,100833.44
2018-07-22T10:37:38.008Z,100834.20
2018-07-22T10:40:05.201Z,100836.66
2018-07-22T10:42:32.435Z,100823.39
2018-07-22T10:44:59.617Z,100827.42
2018-07-22T10:47:26.819Z,100830.30
2018-07-22T10:49:53.938Z,100825.92
2018-07-22T10:52:21.059Z,100830.27
2018-07-22T10:54:48.239Z,100831.11
2018-07-22T10:57:15.363Z,100830.92
2018-07-22T10:59:42.508Z,100834.81
2018-07-22T11:02:09.669Z,100827.00
2018-07-22T11:04:36.819Z,100831.59
2018-07-22T11:07:03.984Z,100829.08
2018-07-22T11:09:31.245Z,100827.74
2018-07-22T11:11:58.391Z,100824.25
2018-07-22T11:14:25.645Z,100815.50
2018-07-22T11:16:52.835Z,100809.20
2018-07-22T11:19:20.000Z,100818.55
2018-07-22T11:21:47.155Z,100817.58
2018-07-22T11:24:14.367Z,100820.30
2018-07-22T11:26:41.536Z,100817.11
2018-07-22T11:29:08.736Z,100823.39
2018-07-22T11:31:35.892Z,100826.66
2018-07-22T11:34:03.053Z,100828.03
2018-07-22T11:36:30.171Z,100826.30
2018-07-22T11:38:57.350Z,100824.33
2018-07-22T11:41:24.484Z,100827.02
2018-07-22T11:43:51.639Z,100826.63
2018-07-22T11:46:18.962Z,100823.02
2018-07-22T11:48:46.158Z,100825.05
2018-07-22T11:51:13.274Z,100821.80
2018-07-22T11:53:41.205Z,100821.52
2018-07-22T11:56:08.356Z,100817.86
2018-07-22T11:58:35.501Z,100822.06
2018-07-22T12:01:02.672Z,100813.00
2018-07-22T12:03:29.819Z,100817.34
2018-07-22T12:05:56.951Z,100816.18
2018-07-22T12:08:24.129Z,100815.00
2018-07-22T12:10:51.278Z,100815.03
2018-07-22T12:13:18.435Z,100816.09
2018-07-22T12:15:45.647Z,100817.64
2018-07-22T12:18:12.796Z,100817.42
2018-07-22T12:20:39.963Z,100809.97
2018-07-22T12:23:07.225Z,100812.20
2018-07-22T12:25:34.899Z,100814.36
2018-07-22T12:28:02.117Z,100825.48
2018-07-22T12:30:29.294Z,100823.24
2018-07-22T12:32:56.408Z,100828.14
2018-07-22T12:35:23.544Z,100820.48
2018-07-22T12:37:50.688Z,100818.93
2018-07-22T12:40:17.826Z,100813.34
2018-07-22T12:42:44.967Z,100811.24
2018-07-22T12:45:12.510Z,100812.95
2018-07-22T12:47:39.671Z,100812.05
2018-07-22T12:50:06.804Z,100808.72
2018-07-22T12:52:33.967Z,100811.48
2018-07-22T12:55:01.109Z,100802.95
2018-07-22T12:57:28.240Z,100801.98
2018-07-22T12:59:55.417Z,100795.73
2018-07-22T13:02:22.519Z,100794.41
2018-07-22T13:04:49.659Z,100802.02
2018-07-22T13:07:16.848Z,100795.22
2018-07-22T13:09:43.984Z,100794.38
2018-07-22T13:12:11.108Z,100787.00
2018-07-22T13:14:38.309Z,100790.21
2018-07-22T13:17:05.445Z,100787.48
2018-07-22T13:19:32.589Z,100783.18
2018-07-22T13:21:59.739Z,100783.89
2018-07-22T13:24:26.880Z,100783.88
2018-07-22T13:26:53.990Z,100780.38
2018-07-22T13:29:21.181Z,100776.66
2018-07-22T13:31:48.311Z,100780.95
2018-07-22T13:34:15.442Z,100776.80
2018-07-22T13:36:42.608Z,100775.74
2018-07-22T13:39:11.069Z,100775.49
2018-07-22T13:41:38.608Z,100776.13
2018-07-22T13:44:05.872Z,100777.15
2018-07-22T13:46:33.540Z,100777.38
2018-07-22T13:49:00.765Z,100774.98
2018-07-22T13:51:28.051Z,100775.26
2018-07-22T13:53:55.165Z,100774.45
2018-07-22T13:56:22.304Z,100773.16
2018-07-22T13:58:49.508Z,100778.87
2018-07-22T14:01:16.661Z,100769.63
2018-07-22T14:03:43.805Z,100764.60
2018-07-22T14:06:11.057Z,100764.00
2018-07-22T14:08:38.187Z,100757.63
2018-07-22T14:11:05.324Z,100753.75
2018-07-22T14:13:32.553Z,100750.85
2018-07-22T14:15:59.680Z,100752.13
2018-07-22T14:18:26.832Z,100750.90
2018-07-22T14:20:54.113Z,100753.58
2018-07-22T14:23:21.234Z,100752.05
2018-07-22T14:25:48.364Z,100750.02
2018-07-22T14:28:15.544Z,100756.45
2018-07-22T14:30:42.653Z,100749.47
2018-07-22T14:33:09.792Z,100763.47
2018-07-22T14:35:36.966Z,100768.08
2018-07-22T14:38:04.166Z,100763.42
2018-07-22T14:40:31.287Z,100758.69
2018-07-22T14:42:58.461Z,100761.25
2018-07-22T14:45:25.591Z,100761.38
2018-07-22T14:47:52.769Z,100766.12
2018-07-22T14:50:20.064Z,100773.57
2018-07-22T14:52:47.199Z,100765.76
2018-07-22T14:55:14.329Z,100764.44
2018-07-22T14:57:41.536Z,100766.49
2018-07-22T15:00:08.668Z,100762.05
2018-07-22T15:02:35.810Z,100760.39
2018-07-22T15:05:03.085Z,100765.44
2018-07-22T15:07:30.213Z,100765.13
2018-07-22T15:09:57.388Z,100769.02
2018-07-22T15:12:24.607Z,100775.75
2018-07-22T15:14:51.748Z,100773.16
2018-07-22T15:17:18.911Z,100768.05
2018-07-22T15:19:46.076Z,100774.75
2018-07-22T15:22:13.228Z,100769.70
2018-07-22T15:24:40.368Z,100768.83
2018-07-22T15:27:08.515Z,100768.22
2018-07-22T15:29:36.159Z,100764.06
2018-07-22T15:32:03.471Z,100765.69
2018-07-22T15:34:30.610Z,100768.36
2018-07-22T15:36:57.735Z,100771.17
2018-07-22T15:39:24.852Z,100772.83
2018-07-22T15:41:52.080Z,100773.23
2018-07-22T15:44:19.207Z,100771.95
2018-07-22T15:46:46.340Z,100766.54
2018-07-22T15:49:13.487Z,100765.84
2018-07-22T15:51:41.459Z,100771.47
2018-07-22T15:54:08.569Z,100767.70
2018-07-22T15:56:35.735Z,100769.35
2018-07-22T15:59:02.885Z,100769.88
2018-07-22T16:01:30.163Z,100772.70
2018-07-22T16:03:57.292Z,100767.61
2018-07-22T16:06:24.404Z,100769.34
2018-07-22T16:08:51.653Z,100767.81
2018-07-22T16:11:18.829Z,100768.64
2018-07-22T16:13:45.964Z,100760.63
2018-07-22T16:16:13.059Z,100770.86
2018-07-22T16:18:40.271Z,100762.25
2018-07-22T16:21:07.368Z,100769.92
2018-07-22T16:23:34.504Z,100775.19
2018-07-22T16:26:01.668Z,100757.53
2018-07-22T16:28:28.781Z,100763.80
2018-07-22T16:30:55.892Z,100763.16
2018-07-22T16:33:23.069Z,100759.80
2018-07-22T16:35:50.200Z,100767.13
2018-07-22T16:38:17.345Z,100759.80
2018-07-22T16:40:44.601Z,100763.58
2018-07-22T16:43:11.729Z,100748.36
2018-07-22T16:45:38.864Z,100754.80
2018-07-22T16:48:06.073Z,100753.20
2018-07-22T16:50:33.245Z,100747.30
2018-07-22T16:53:00.548Z,100749.27
2018-07-22T16:55:27.808Z,100746.22
2018-07-22T16:57:54.920Z,100748.70
2018-07-22T17:00:22.055Z,100742.67
2018-07-22T17:02:49.236Z,100739.55
2018-07-22T17:05:16.351Z,100741.41
2018-07-22T17:07:43.474Z,100737.59
2018-07-22T17:10:10.663Z,100735.74
2018-07-22T17:12:37.789Z,100746.26
2018-07-22T17:15:04.944Z,100739.18
2018-07-22T17:17:32.130Z,100741.95
2018-07-22T17:19:59.260Z,100736.97
2018-07-22T17:22:26.383Z,100734.80
2018-07-22T17:24:53.636Z,100737.86
2018-07-22T17:27:20.783Z,100739.61
2018-07-22T17:29:47.915Z,100736.63
2018-07-22T17:32:15.093Z,100733.98
2018-07-22T17:34:42.284Z,100739.34
2018-07-22T17:37:09.408Z,100741.03
2018-07-22T17:39:36.665Z,100736.27
2018-07-22T17:42:03.799Z,100735.66
2018-07-22T17:44:30.957Z,100739.31
2018-07-22T17:46:58.108Z,100729.50
2018-07-22T17:49:25.252Z,100738.87
2018-07-22T17:51:52.403Z,100745.44
2018-07-22T17:54:19.627Z,100738.86
2018-07-22T17:56:46.748Z,100742.72
2018-07-22T17:59:13.895Z,100739.84
2018-07-22T18:01:41.089Z,100749.83
2018-07-22T18:04:08.236Z,100752.46
2018-07-22T18:06:35.434Z,100754.97
2018-07-22T18:09:02.725Z,100756.94
2018-07-22T18:11:29.835Z,100760.42
2018-07-22T18:13:56.954Z,100762.91
2018-07-22T18:16:24.158Z,100765.74
2018-07-22T18:18:51.314Z,100770.43
2018-07-22T18:21:18.459Z,100770.34
2018-07-22T18:23:45.712Z,100769.16
2018-07-22T18:26:12.836Z,100773.95
2018-07-22T18:28:39.952Z,100774.84
2018-07-22T18:31:07.131Z,100774.10
2018-07-22T18:33:34.256Z,100769.96
2018-07-22T18:36:01.390Z,100781.59
2018-07-22T18:38:28.568Z,100779.53
2018-07-22T18:40:55.701Z,100785.29
2018-07-22T18:43:22.855Z,100788.46
2018-07-22T18:45:50.048Z,100787.59
2018-07-22T18:48:17.201Z,100792.45
2018-07-22T18:50:44.341Z,100798.06
2018-07-22T18:53:11.583Z,100799.16
2018-07-22T18:55:38.739Z,100796.92
2018-07-22T18:58:05.901Z,100809.19
2018-07-22T19:00:33.095Z,100804.95
2018-07-22T19:03:00.228Z,100800.27
2018-07-22T19:05:27.400Z,100807.41
2018-07-22T19:07:54.687Z,100814.63
2018-07-22T19:10:21.816Z,100817.00
2018-07-22T19:12:48.989Z,100821.48
2018-07-22T19:15:16.178Z,100824.05
2018-07-22T19:17:43.343Z,100835.65
2018-07-22T19:20:10.508Z,100836.27
2018-07-22T19:22:37.765Z,100839.91
2018-07-22T19:25:04.905Z,100839.93
2018-07-22T19:27:32.091Z,100860.29
2018-07-22T19:29:59.280Z,100854.22
2018-07-22T19:32:26.388Z,100857.60
2018-07-22T19:34:53.509Z,100860.33
2018-07-22T19:37:20.660Z,100856.93
2018-07-22T19:39:47.790Z,100866.25
2018-07-22T19:42:14.908Z,100863.39
2018-07-22T19:44:42.141Z,100869.16
2018-07-22T19:47:09.257Z,100861.74
2018-07-22T19:49:36.384Z,100856.39
2018-07-22T19:52:03.633Z,100861.02
2018-07-22T19:54:31.760Z,100863.34
2018-07-22T19:56:58.961Z,100864.77
2018-07-22T19:59:26.128Z,100867.83
2018-07-22T20:01:53.252Z,100875.03
2018-07-22T20:04:20.374Z,100877.32
2018-07-22T20:06:47.577Z,100876.42
2018-07-22T20:09:14.669Z,100875.54
2018-07-22T20:11:42.422Z,100880.48
2018-07-22T20:14:09.650Z,100885.98
2018-07-22T20:16:36.800Z,100878.93
2018-07-22T20:19:03.974Z,100878.55
2018-07-22T20:21:31.658Z,100882.56
2018-07-22T20:23:58.828Z,100881.89
2018-07-22T20:26:25.980Z,100880.27
2018-07-22T20:28:53.287Z,100887.92
2018-07-22T20:31:20.413Z,100881.77
2018-07-22T20:33:47.685Z,100891.16
2018-07-22T20:36:15.123Z,100892.48
2018-07-22T20:38:42.272Z,100891.42
2018-07-22T20:41:09.458Z,100896.13
2018-07-22T20:43:36.691Z,100898.96
2018-07-22T20:46:03.911Z,100896.29
2018-07-22T20:48:31.098Z,100890.42
2018-07-22T20:50:58.688Z,100892.14
2018-07-22T20:53:25.808Z,100891.03
2018-07-22T20:55:52.981Z,100894.00
2018-07-22T20:58:20.263Z,100893.75
2018-07-22T21:00:47.532Z,100905.23
2018-07-22T21:03:14.675Z,100903.45
2018-07-22T21:05:41.880Z,100907.63
2018-07-22T21:08:09.106Z,100902.66
2018-07-22T21:10:36.163Z,100906.70
2018-07-22T21:13:15.844Z,100916.36
2018-07-22T21:15:42.963Z,100914.80
2018-07-22T21:18:10.091Z,100917.31
2018-07-22T21:20:37.307Z,100914.45
2018-07-22T21:23:04.657Z,100912.95
2018-07-22T21:25:31.783Z,100914.87
2018-07-22T21:27:59.059Z,100926.72
2018-07-22T21:30:26.204Z,100920.54
2018-07-22T21:32:53.337Z,100920.41
2018-07-22T21:35:20.519Z,100918.47
2018-07-22T21:37:47.651Z,100922.14
2018-07-22T21:40:14.826Z,100920.70
2018-07-22T21:42:42.005Z,100918.23
2018-07-22T21:45:09.119Z,100924.53
2018-07-22T21:47:36.341Z,100919.38
2018-07-22T21:50:04.164Z,100925.37
2018-07-22T21:52:31.285Z,100909.81
2018-07-22T21:54:58.395Z,100914.35
2018-07-22T21:57:25.547Z,100923.78
2018-07-22T21:59:52.780Z,100919.38
2018-07-22T22:02:19.948Z,100924.23
2018-07-22T22:04:47.220Z,100927.30
2018-07-22T22:07:14.368Z,100927.08
2018-07-22T22:09:41.544Z,100932.89
2018-07-22T22:12:08.756Z,100928.78
2018-07-22T22:14:35.941Z,100934.98
2018-07-22T22:17:03.111Z,100930.28
2018-07-22T22:19:30.415Z,100929.03
2018-07-22T22:21:57.534Z,100929.48
2018-07-22T22:24:24.660Z,100933.11
2018-07-22T22:26:51.830Z,100937.28
2018-07-22T22:29:18.958Z,100936.53
2018-07-22T22:31:46.080Z,100937.84
2018-07-22T22:34:13.252Z,100939.45
2018-07-22T22:36:40.363Z,100942.41
2018-07-22T22:39:08.848Z,100941.79
2018-07-22T22:41:36.019Z,100941.20
2018-07-22T22:44:03.163Z,100938.98
2018-07-22T22:46:30.293Z,100944.53
2018-07-22T22:48:57.483Z,100945.57
2018-07-22T22:51:24.740Z,100948.23
2018-07-22T22:53:51.949Z,100947.72
2018-07-22T22:56:19.111Z,100944.04
2018-07-22T22:58:57.789Z,100943.38
2018-07-22T23:01:25.043Z,100941.92
2018-07-22T23:03:52.181Z,100950.55
2018-07-22T23:06:19.295Z,100945.13
2018-07-22T23:08:46.443Z,100946.70
2018-07-22T23:11:13.560Z,100949.58
2018-07-22T23:13:40.687Z,100947.59
2018-07-22T23:16:07.880Z,100941.70
2018-07-22T23:18:34.992Z,100941.65
2018-07-22T23:21:02.110Z,100935.50
2018-07-22T23:23:29.248Z,100935.50
2018-07-22T23:25:56.384Z,100936.70
2018-07-22T23:28:23.505Z,100934.11
2018-07-22T23:30:50.701Z,100932.97
2018-07-22T23:33:17.904Z,100930.63
2018-07-22T23:35:45.069Z,100940.88
2018-07-22T23:38:12.223Z,100935.71
2018-07-22T23:40:39.365Z,100940.93
2018-07-22T23:43:06.480Z,100941.17
2018-07-22T23:45:33.627Z,100945.28
2018-07-22T23:48:00.824Z,100943.56
2018-07-22T23:50:27.945Z,100946.86
2018-07-22T23:52:55.213Z,100951.20
2018-07-22T23:55:22.331Z,100956.50
2018-07-22T23:57:49.476Z,100956.66
